createdAt,value
2023-01-13T00:00:00.458Z,0.63
2023-01-13T00:02:27.549Z,0.70
2023-01-13T00:04:53.844Z,0.57
2023-01-13T00:07:20.826Z,0.63
2023-01-13T00:09:47.198Z,1.23
2023-01-13T00:12:13.495Z,0.70
2023-01-13T00:14:39.720Z,0.60
2023-01-13T00:17:05.984Z,0.45
2023-01-13T00:19:32.251Z,0.50
2023-01-13T00:21:58.634Z,1.45
2023-01-13T00:24:24.935Z,0.60
2023-01-13T00:26:52.560Z,0.60
2023-01-13T00:29:18.831Z,0.65
2023-01-13T00:31:45.067Z,0.80
2023-01-13T00:34:11.301Z,0.65
2023-01-13T00:36:37.578Z,0.75
2023-01-13T00:39:04.083Z,0.85
2023-01-13T00:41:51.343Z,0.80
2023-01-13T00:44:17.863Z,0.65
2023-01-13T00:46:45.747Z,0.70
2023-01-13T00:49:12.091Z,0.47
2023-01-13T00:51:38.331Z,0.60
2023-01-13T00:54:04.806Z,0.63
2023-01-13T00:56:40.556Z,0.60
2023-01-13T00:59:11.410Z,0.80
2023-01-13T01:01:37.894Z,0.55
2023-01-13T01:04:04.404Z,0.73
2023-01-13T01:06:30.639Z,0.60
2023-01-13T01:08:57.193Z,0.55
2023-01-13T01:11:24.786Z,0.50
2023-01-13T01:13:54.225Z,0.70
2023-01-13T01:16:21.120Z,0.50
2023-01-13T01:18:48.225Z,0.60
2023-01-13T01:21:17.680Z,0.60
2023-01-13T01:23:44.317Z,0.70
2023-01-13T01:26:12.329Z,0.52
2023-01-13T01:28:38.715Z,0.63
2023-01-13T01:31:09.109Z,1.10
2023-01-13T01:33:35.450Z,0.80
2023-01-13T01:36:02.047Z,0.60
2023-01-13T01:38:28.403Z,0.70
2023-01-13T01:40:54.711Z,0.47
2023-01-13T01:43:40.327Z,0.95
2023-01-13T01:46:06.743Z,0.90
2023-01-13T01:48:38.084Z,0.68
2023-01-13T01:51:05.589Z,0.83
2023-01-13T01:53:32.234Z,0.60
2023-01-13T01:55:58.887Z,0.60
2023-01-13T01:58:28.782Z,0.85
2023-01-13T02:00:55.183Z,0.88
2023-01-13T02:03:21.651Z,0.52
2023-01-13T02:05:47.916Z,0.75
2023-01-13T02:08:14.383Z,0.55
2023-01-13T02:10:41.439Z,0.80
2023-01-13T02:13:09.786Z,0.70
2023-01-13T02:15:42.335Z,0.40
2023-01-13T02:18:22.443Z,0.68
2023-01-13T02:20:51.719Z,0.75
2023-01-13T02:23:54.089Z,0.60
2023-01-13T02:26:38.839Z,0.70
2023-01-13T02:29:42.820Z,0.50
2023-01-13T02:32:16.152Z,0.90
2023-01-13T02:34:48.037Z,0.95
2023-01-13T02:37:20.620Z,0.63
2023-01-13T02:39:59.591Z,0.50
2023-01-13T02:42:46.945Z,0.70
2023-01-13T02:45:15.928Z,0.88
2023-01-13T02:47:43.977Z,0.30
2023-01-13T02:50:12.812Z,0.80
2023-01-13T02:52:45.627Z,0.50
2023-01-13T02:55:16.826Z,0.57
2023-01-13T02:57:43.800Z,0.60
2023-01-13T03:00:11.372Z,0.57
2023-01-13T03:02:38.569Z,1.20
2023-01-13T03:05:05.591Z,0.82
2023-01-13T03:07:37.953Z,0.80
2023-01-13T03:10:24.936Z,0.70
2023-01-13T03:12:51.617Z,0.90
2023-01-13T03:15:24.361Z,0.70
2023-01-13T03:18:13.677Z,0.70
2023-01-13T03:20:44.135Z,0.57
2023-01-13T03:23:14.254Z,0.47
2023-01-13T03:25:43.043Z,0.60
2023-01-13T03:28:15.407Z,0.60
2023-01-13T03:30:48.042Z,0.50
2023-01-13T03:33:24.289Z,0.60
2023-01-13T03:35:51.858Z,0.65
2023-01-13T03:38:24.036Z,0.90
2023-01-13T03:40:53.551Z,0.57
2023-01-13T03:43:59.667Z,0.60
2023-01-13T03:46:35.959Z,0.50
2023-01-13T03:49:03.441Z,0.40
2023-01-13T03:51:31.324Z,0.65
2023-01-13T03:54:02.158Z,0.50
2023-01-13T03:56:28.495Z,0.30
2023-01-13T03:58:55.036Z,0.47
2023-01-13T04:01:38.689Z,0.50
2023-01-13T04:04:10.219Z,0.40
2023-01-13T04:06:48.820Z,0.50
2023-01-13T04:09:18.621Z,0.40
2023-01-13T04:11:49.110Z,0.30
2023-01-13T04:14:16.355Z,0.30
2023-01-13T04:16:42.723Z,0.60
2023-01-13T04:19:08.979Z,0.75
2023-01-13T04:21:35.510Z,0.57
2023-01-13T04:24:01.819Z,0.40
2023-01-13T04:26:28.059Z,0.50
2023-01-13T04:28:55.527Z,0.30
2023-01-13T04:31:22.244Z,0.30
2023-01-13T04:33:48.595Z,0.20
2023-01-13T04:36:15.677Z,0.20
2023-01-13T04:38:41.991Z,0.10
2023-01-13T04:41:08.320Z,0.35
2023-01-13T04:43:36.020Z,0.10
2023-01-13T04:46:02.381Z,0.20
2023-01-13T04:48:28.689Z,0.10
2023-01-13T04:50:54.983Z,0.20
2023-01-13T04:53:23.631Z,0.30
2023-01-13T04:55:50.006Z,0.28
2023-01-13T04:58:16.302Z,0.10
2023-01-13T05:00:42.591Z,0.20
2023-01-13T05:03:09.131Z,0.20
2023-01-13T05:05:35.471Z,0.20
2023-01-13T05:08:01.766Z,0.20
2023-01-13T05:10:28.340Z,0.30
2023-01-13T05:13:13.197Z,0.25
2023-01-13T05:15:59.069Z,0.10
2023-01-13T05:18:25.819Z,0.30
2023-01-13T05:20:52.149Z,0.52
2023-01-13T05:23:37.105Z,0.20
2023-01-13T05:26:03.562Z,0.30
2023-01-13T05:28:33.479Z,0.20
2023-01-13T05:30:59.864Z,0.20
2023-01-13T05:33:26.374Z,0.30
2023-01-13T05:35:52.677Z,0.15
2023-01-13T05:38:18.953Z,0.40
2023-01-13T05:41:04.115Z,0.40
2023-01-13T05:43:30.529Z,0.20
2023-01-13T05:45:58.260Z,0.47
2023-01-13T05:48:25.824Z,0.20
2023-01-13T05:50:53.863Z,0.40
2023-01-13T05:53:21.001Z,0.43
2023-01-13T05:55:47.292Z,0.38
2023-01-13T05:58:14.646Z,0.30
2023-01-13T06:00:41.999Z,0.50
2023-01-13T06:03:08.736Z,0.40
2023-01-13T06:05:35.621Z,0.40
2023-01-13T06:08:02.925Z,0.30
2023-01-13T06:10:29.571Z,0.50
2023-01-13T06:12:55.915Z,0.50
2023-01-13T06:15:22.731Z,0.28
2023-01-13T06:17:49.313Z,0.22
2023-01-13T06:20:16.194Z,0.30
2023-01-13T06:22:44.473Z,0.30
2023-01-13T06:25:14.452Z,0.40
2023-01-13T06:27:40.824Z,0.40
2023-01-13T06:30:08.528Z,0.38
2023-01-13T06:32:38.818Z,0.30
2023-01-13T06:35:08.089Z,0.40
2023-01-13T06:37:34.607Z,0.20
2023-01-13T06:40:01.633Z,0.38
2023-01-13T06:42:48.368Z,0.25
2023-01-13T06:45:14.660Z,0.60
2023-01-13T06:47:41.210Z,0.30
2023-01-13T06:50:07.864Z,0.30
2023-01-13T06:52:34.174Z,0.40
2023-01-13T06:55:00.489Z,0.60
2023-01-13T06:57:26.813Z,0.30
2023-01-13T06:59:53.219Z,0.50
2023-01-13T07:02:19.606Z,0.40
2023-01-13T07:04:46.793Z,0.30
2023-01-13T07:07:13.710Z,0.60
2023-01-13T07:09:40.172Z,0.38
2023-01-13T07:12:06.506Z,0.50
2023-01-13T07:14:51.387Z,0.50
2023-01-13T07:17:25.021Z,0.40
2023-01-13T07:19:52.098Z,0.40
2023-01-13T07:22:18.344Z,0.30
2023-01-13T07:24:44.723Z,0.40
2023-01-13T07:27:11.004Z,0.45
2023-01-13T07:29:37.605Z,0.40
2023-01-13T07:32:04.369Z,0.30
2023-01-13T07:34:30.704Z,0.50
2023-01-13T07:36:56.999Z,0.85
2023-01-13T07:39:23.259Z,0.77
2023-01-13T07:42:08.316Z,0.38
2023-01-13T07:44:34.541Z,0.40
2023-01-13T07:47:00.829Z,0.28
2023-01-13T07:49:27.224Z,0.32
2023-01-13T07:51:53.465Z,0.40
2023-01-13T07:54:25.564Z,0.40
2023-01-13T07:56:57.971Z,0.50
2023-01-13T07:59:24.275Z,0.70
2023-01-13T08:01:53.862Z,0.80
2023-01-13T08:04:20.291Z,0.35
2023-01-13T08:06:46.675Z,0.40
2023-01-13T08:09:13.027Z,0.30
2023-01-13T08:11:39.385Z,0.40
2023-01-13T08:14:05.797Z,0.47
2023-01-13T08:16:33.268Z,0.17
2023-01-13T08:18:59.582Z,1.00
2023-01-13T08:21:26.010Z,0.28
2023-01-13T08:23:53.699Z,0.40
2023-01-13T08:26:20.000Z,0.20
2023-01-13T08:28:46.327Z,0.32
2023-01-13T08:31:15.729Z,0.40
2023-01-13T08:33:42.561Z,0.52
2023-01-13T08:36:09.890Z,0.95
2023-01-13T08:38:37.085Z,0.20
2023-01-13T08:41:10.544Z,0.38
2023-01-13T08:43:36.908Z,0.40
2023-01-13T08:46:04.704Z,0.22
2023-01-13T08:48:31.744Z,0.40
2023-01-13T08:51:01.998Z,0.60
2023-01-13T08:53:28.256Z,0.52
2023-01-13T08:55:54.541Z,0.43
2023-01-13T08:58:20.790Z,0.40
2023-01-13T09:00:47.051Z,0.70
2023-01-13T09:03:13.312Z,0.50
2023-01-13T09:05:39.655Z,0.50
2023-01-13T09:08:06.009Z,0.30
2023-01-13T09:10:32.481Z,0.32
2023-01-13T09:13:14.086Z,0.40
2023-01-13T09:15:41.099Z,0.37
2023-01-13T09:18:07.611Z,0.68
2023-01-13T09:20:33.996Z,0.70
2023-01-13T09:23:00.507Z,0.30
2023-01-13T09:25:26.831Z,0.70
2023-01-13T09:27:53.180Z,0.43
2023-01-13T09:30:19.579Z,0.50
2023-01-13T09:32:45.892Z,0.43
2023-01-13T09:35:12.239Z,0.40
2023-01-13T09:37:39.757Z,0.35
2023-01-13T09:40:12.875Z,0.47
2023-01-13T09:43:10.416Z,0.50
2023-01-13T09:45:42.654Z,0.30
2023-01-13T09:50:53.691Z,0.30
2023-01-13T09:53:22.638Z,0.30
2023-01-13T09:55:48.979Z,0.30
2023-01-13T09:58:17.231Z,0.32
2023-01-13T10:00:47.070Z,0.47
2023-01-13T10:03:19.401Z,0.40
2023-01-13T10:05:45.695Z,0.32
2023-01-13T10:08:13.434Z,0.47
2023-01-13T10:10:44.111Z,0.50
2023-01-13T10:13:30.754Z,0.05
2023-01-13T10:16:12.465Z,0.28
2023-01-13T10:18:58.612Z,0.30
2023-01-13T10:21:43.530Z,0.40
2023-01-13T10:24:12.816Z,0.50
2023-01-13T10:26:47.143Z,0.35
2023-01-13T10:29:27.845Z,0.40
2023-01-13T10:31:55.386Z,0.50
2023-01-13T10:34:22.693Z,0.40
2023-01-13T10:37:10.678Z,0.20
2023-01-13T10:39:44.538Z,0.20
2023-01-13T10:42:15.273Z,0.50
2023-01-13T10:45:08.369Z,0.32
2023-01-13T10:47:35.700Z,0.38
2023-01-13T10:50:05.435Z,0.50
2023-01-13T10:52:33.452Z,0.30
2023-01-13T10:55:00.992Z,0.38
2023-01-13T10:57:27.981Z,0.50
2023-01-13T10:59:54.734Z,0.43
2023-01-13T11:02:29.942Z,0.35
2023-01-13T11:04:57.831Z,0.30
2023-01-13T11:07:28.570Z,0.40
2023-01-13T11:10:10.214Z,0.30
2023-01-13T11:12:45.702Z,0.40
2023-01-13T11:15:14.990Z,0.32
2023-01-13T11:18:00.312Z,0.50
2023-01-13T11:20:41.154Z,0.22
2023-01-13T11:23:14.221Z,0.25
2023-01-13T11:25:42.972Z,0.20
2023-01-13T11:28:20.691Z,0.30
2023-01-13T11:30:52.583Z,0.20
2023-01-13T11:33:37.454Z,0.40
2023-01-13T11:36:12.114Z,0.20
2023-01-13T11:38:41.162Z,0.25
2023-01-13T11:41:26.368Z,0.20
2023-01-13T11:44:12.620Z,0.10
2023-01-13T11:46:40.545Z,0.30
2023-01-13T11:49:07.448Z,0.10
2023-01-13T11:51:40.914Z,0.30
2023-01-13T11:54:07.166Z,0.20
2023-01-13T11:56:36.280Z,0.25
2023-01-13T11:59:20.862Z,0.10
2023-01-13T12:02:05.895Z,0.20
2023-01-13T12:04:41.059Z,0.13
2023-01-13T12:07:25.924Z,0.30
2023-01-13T12:10:13.750Z,0.30
2023-01-13T12:12:47.850Z,0.32
2023-01-13T12:15:17.023Z,0.25
2023-01-13T12:17:46.318Z,0.22
2023-01-13T12:20:28.993Z,0.30
2023-01-13T12:22:57.858Z,0.30
2023-01-13T12:25:26.972Z,0.20
2023-01-13T12:27:53.241Z,0.30
2023-01-13T12:30:22.633Z,0.60
2023-01-13T12:32:50.169Z,0.20
2023-01-13T12:35:35.445Z,0.40
2023-01-13T12:38:07.937Z,0.17
2023-01-13T12:40:47.935Z,0.30
2023-01-13T12:43:37.200Z,0.50
2023-01-13T12:46:18.664Z,0.43
2023-01-13T12:48:46.146Z,0.40
2023-01-13T12:51:22.706Z,0.32
2023-01-13T12:53:49.130Z,1.00
2023-01-13T12:56:24.496Z,0.40
2023-01-13T12:58:51.049Z,0.30
2023-01-13T13:01:18.254Z,0.20
2023-01-13T13:04:07.189Z,0.20
2023-01-13T13:06:36.628Z,0.10
2023-01-13T13:09:07.064Z,0.25
2023-01-13T13:11:59.021Z,0.25
2023-01-13T13:14:37.400Z,0.10
2023-01-13T13:17:04.649Z,0.30
2023-01-13T13:19:30.925Z,0.30
2023-01-13T13:22:09.914Z,0.10
2023-01-13T13:24:36.204Z,0.20
2023-01-13T13:27:33.122Z,0.20
2023-01-13T13:30:05.662Z,0.10
2023-01-13T13:32:31.951Z,0.20
2023-01-13T13:35:16.882Z,0.20
2023-01-13T13:38:25.192Z,0.20
2023-01-13T13:41:10.352Z,0.20
2023-01-13T13:43:59.682Z,0.35
2023-01-13T13:46:46.549Z,0.13
2023-01-13T13:49:17.526Z,0.57
2023-01-13T13:51:47.040Z,0.20
2023-01-13T13:54:14.883Z,0.20
2023-01-13T13:56:44.289Z,0.10
2023-01-13T13:59:11.873Z,0.22
2023-01-13T14:01:39.971Z,0.20
2023-01-13T14:04:12.461Z,0.30
2023-01-13T14:06:48.838Z,0.08
2023-01-13T14:09:19.331Z,0.28
2023-01-13T14:11:54.549Z,0.30
2023-01-13T14:14:21.127Z,0.40
2023-01-13T14:16:47.503Z,0.20
2023-01-13T14:19:25.943Z,0.30
2023-01-13T14:21:53.173Z,0.30
2023-01-13T14:24:21.052Z,0.20
2023-01-13T14:26:52.003Z,0.43
2023-01-13T14:29:24.747Z,0.35
2023-01-13T14:31:52.890Z,0.20
2023-01-13T14:34:31.796Z,0.30
2023-01-13T14:36:59.823Z,0.30
2023-01-13T14:39:33.220Z,0.30
2023-01-13T14:41:59.493Z,0.10
2023-01-13T14:44:30.767Z,0.10
2023-01-13T14:47:02.053Z,0.13
2023-01-13T14:49:30.571Z,0.10
2023-01-13T14:52:04.845Z,0.32
2023-01-13T14:54:45.184Z,0.13
2023-01-13T14:57:15.984Z,0.20
2023-01-13T14:59:51.845Z,0.10
2023-01-13T15:02:30.690Z,0.35
2023-01-13T15:05:00.718Z,0.30
2023-01-13T15:07:29.802Z,0.30
2023-01-13T15:09:57.935Z,0.20
2023-01-13T15:12:40.993Z,0.30
2023-01-13T15:15:21.063Z,0.30
2023-01-13T15:17:47.379Z,0.10
2023-01-13T15:20:14.168Z,0.15
2023-01-13T15:22:40.443Z,0.10
2023-01-13T15:25:09.360Z,0.22
2023-01-13T15:27:36.739Z,0.20
2023-01-13T15:30:03.992Z,0.30
2023-01-13T15:32:30.291Z,0.30
2023-01-13T15:34:56.588Z,0.32
2023-01-13T15:37:25.484Z,0.28
2023-01-13T15:39:51.794Z,0.10
2023-01-13T15:42:36.664Z,0.20
2023-01-13T15:45:21.554Z,0.30
2023-01-13T15:47:48.276Z,0.10
2023-01-13T15:50:15.441Z,0.20
2023-01-13T15:52:41.795Z,0.30
2023-01-13T15:55:08.256Z,0.13
2023-01-13T15:57:35.800Z,0.40
2023-01-13T16:00:04.535Z,0.20
2023-01-13T16:02:31.084Z,0.10
2023-01-13T16:04:57.384Z,0.10
2023-01-13T16:07:24.446Z,0.10
2023-01-13T16:09:50.903Z,0.25
2023-01-13T16:12:17.170Z,0.20
2023-01-13T16:14:43.504Z,0.30
2023-01-13T16:17:14.465Z,0.20
2023-01-13T16:19:40.823Z,0.30
2023-01-13T16:22:08.200Z,0.20
2023-01-13T16:24:34.448Z,0.20
2023-01-13T16:27:00.770Z,0.30
2023-01-13T16:29:27.031Z,0.20
2023-01-13T16:31:53.460Z,0.40
2023-01-13T16:34:19.780Z,0.50
2023-01-13T16:36:46.351Z,0.10
2023-01-13T16:39:22.140Z,0.22
2023-01-13T16:41:48.606Z,0.30
2023-01-13T16:44:14.912Z,0.20
2023-01-13T16:46:44.408Z,0.38
2023-01-13T16:49:12.711Z,0.30
2023-01-13T16:51:39.309Z,0.40
2023-01-13T16:54:05.780Z,0.10
2023-01-13T16:56:33.487Z,0.10
2023-01-13T16:59:02.471Z,0.20
2023-01-13T17:01:30.175Z,0.10
2023-01-13T17:03:57.161Z,0.30
2023-01-13T17:06:37.134Z,0.10
2023-01-13T17:09:04.685Z,0.13
2023-01-13T17:11:31.213Z,0.15
2023-01-13T17:13:57.627Z,0.17
2023-01-13T17:16:26.029Z,0.10
2023-01-13T17:18:52.857Z,0.10
2023-01-13T17:21:19.297Z,0.17
2023-01-13T17:23:45.740Z,0.05
2023-01-13T17:26:25.595Z,0.17
2023-01-13T17:28:51.910Z,0.10
2023-01-13T17:31:18.153Z,0.00
2023-01-13T17:33:44.504Z,0.00
2023-01-13T17:36:10.851Z,0.00
2023-01-13T17:38:37.166Z,0.00
2023-01-13T17:41:04.201Z,0.00
2023-01-13T17:43:31.058Z,0.00
2023-01-13T17:45:57.946Z,0.00
2023-01-13T17:48:24.663Z,0.00
2023-01-13T17:50:53.785Z,0.10
2023-01-13T17:53:22.960Z,0.00
2023-01-13T17:55:52.775Z,0.00
2023-01-13T17:58:22.447Z,0.00
2023-01-13T18:00:48.867Z,0.00
2023-01-13T18:03:15.888Z,0.00
2023-01-13T18:05:42.361Z,0.08
2023-01-13T18:08:09.996Z,0.30
2023-01-13T18:10:36.257Z,0.10
2023-01-13T18:13:03.539Z,0.30
2023-01-13T18:15:31.085Z,0.20
2023-01-13T18:17:57.431Z,0.20
2023-01-13T18:20:42.484Z,0.08
2023-01-13T18:23:37.759Z,0.22
2023-01-13T18:26:48.695Z,0.10
2023-01-13T18:29:15.014Z,0.20
2023-01-13T18:31:41.284Z,0.17
2023-01-13T18:34:07.543Z,0.10
2023-01-13T18:36:33.796Z,0.32
2023-01-13T18:39:00.036Z,0.25
2023-01-13T18:41:44.780Z,0.10
2023-01-13T18:44:11.023Z,0.10
2023-01-13T18:46:37.372Z,0.20
2023-01-13T18:49:03.690Z,0.20
2023-01-13T18:51:29.915Z,0.00
2023-01-13T18:53:56.381Z,0.10
2023-01-13T18:56:22.798Z,0.20
2023-01-13T18:58:53.180Z,0.10
2023-01-13T19:01:25.462Z,0.03
2023-01-13T19:03:56.406Z,0.30
2023-01-13T19:06:25.643Z,0.30
2023-01-13T19:08:53.360Z,0.25
2023-01-13T19:11:20.785Z,0.20
2023-01-13T19:13:47.571Z,0.10
2023-01-13T19:16:14.043Z,0.10
2023-01-13T19:18:40.285Z,0.10
2023-01-13T19:21:06.607Z,0.10
2023-01-13T19:23:33.289Z,0.10
2023-01-13T19:26:00.208Z,0.10
2023-01-13T19:28:26.846Z,0.45
2023-01-13T19:30:53.365Z,0.10
2023-01-13T19:33:19.810Z,0.20
2023-01-13T19:35:46.169Z,0.10
2023-01-13T19:38:12.469Z,0.10
2023-01-13T19:40:38.702Z,0.15
2023-01-13T19:43:23.419Z,1.17
2023-01-13T19:45:52.470Z,0.10
2023-01-13T19:48:18.796Z,0.20
2023-01-13T19:50:45.113Z,0.13
2023-01-13T19:53:16.090Z,0.10
2023-01-13T19:55:48.216Z,0.10
2023-01-13T19:58:14.857Z,0.10
2023-01-13T20:00:47.347Z,0.20
2023-01-13T20:03:14.206Z,0.10
2023-01-13T20:05:40.743Z,0.10
2023-01-13T20:08:07.435Z,0.10
2023-01-13T20:10:33.714Z,0.10
2023-01-13T20:13:00.118Z,0.40
2023-01-13T20:15:26.427Z,0.43
2023-01-13T20:17:54.647Z,0.15
2023-01-13T20:20:21.157Z,0.10
2023-01-13T20:22:49.560Z,0.10
2023-01-13T20:25:17.452Z,0.10
2023-01-13T20:27:44.137Z,0.10
2023-01-13T20:30:13.307Z,0.10
2023-01-13T20:32:39.923Z,0.05
2023-01-13T20:35:07.256Z,0.03
2023-01-13T20:37:34.029Z,0.00
2023-01-13T20:40:03.512Z,0.10
2023-01-13T20:42:29.821Z,0.20
2023-01-13T20:44:56.731Z,0.00
2023-01-13T20:47:25.773Z,0.10
2023-01-13T20:49:52.165Z,0.00
2023-01-13T20:52:18.471Z,0.32
2023-01-13T20:54:44.830Z,0.25
2023-01-13T20:57:11.638Z,0.00
2023-01-13T20:59:38.732Z,0.20
2023-01-13T21:02:06.195Z,0.15
2023-01-13T21:04:32.434Z,0.20
2023-01-13T21:06:58.889Z,0.22
2023-01-13T21:09:26.576Z,0.10
2023-01-13T21:12:11.622Z,0.40
2023-01-13T21:14:56.415Z,0.20
2023-01-13T21:17:41.704Z,0.20
2023-01-13T21:20:09.434Z,0.52
2023-01-13T21:22:35.942Z,0.20
2023-01-13T21:25:03.246Z,0.45
2023-01-13T21:27:30.043Z,0.63
2023-01-13T21:29:56.425Z,0.20
2023-01-13T21:32:22.709Z,0.30
2023-01-13T21:34:48.999Z,0.05
2023-01-13T21:37:16.060Z,0.28
2023-01-13T21:39:42.658Z,0.20
2023-01-13T21:42:33.778Z,0.30
2023-01-13T21:45:32.218Z,0.40
2023-01-13T21:47:58.736Z,0.40
2023-01-13T21:50:26.663Z,0.30
2023-01-13T21:52:52.882Z,0.60
2023-01-13T21:55:20.596Z,0.30
2023-01-13T21:57:47.646Z,0.40
2023-01-13T22:00:14.462Z,0.20
2023-01-13T22:02:40.862Z,0.25
2023-01-13T22:05:08.480Z,0.40
2023-01-13T22:07:35.906Z,0.40
2023-01-13T22:10:02.527Z,0.20
2023-01-13T22:12:29.663Z,0.25
2023-01-13T22:14:56.508Z,0.30
2023-01-13T22:17:24.607Z,0.38
2023-01-13T22:19:54.859Z,0.40
2023-01-13T22:22:21.828Z,0.30
2023-01-13T22:24:49.011Z,0.32
2023-01-13T22:27:25.316Z,0.40
2023-01-13T22:29:52.392Z,0.30
2023-01-13T22:32:19.253Z,0.20
2023-01-13T22:34:45.803Z,0.20
2023-01-13T22:37:12.046Z,0.38
2023-01-13T22:39:38.670Z,0.20
2023-01-13T22:42:05.352Z,0.20
2023-01-13T22:44:32.290Z,0.30
2023-01-13T22:46:58.621Z,0.10
2023-01-13T22:49:24.972Z,0.20
2023-01-13T22:51:51.287Z,0.25
2023-01-13T22:54:17.799Z,0.40
2023-01-13T22:56:44.096Z,0.20
2023-01-13T22:59:11.962Z,0.75
2023-01-13T23:01:39.024Z,0.22
2023-01-13T23:04:05.724Z,0.17
2023-01-13T23:06:32.943Z,0.10
2023-01-13T23:08:59.310Z,0.30
2023-01-13T23:11:26.830Z,0.30
2023-01-13T23:13:56.685Z,0.30
2023-01-13T23:16:23.227Z,0.32
2023-01-13T23:18:49.518Z,0.40
2023-01-13T23:21:20.848Z,0.30
2023-01-13T23:23:47.611Z,0.30
2023-01-13T23:26:13.973Z,0.40
2023-01-13T23:28:40.338Z,0.20
2023-01-13T23:31:07.567Z,0.20
2023-01-13T23:33:34.443Z,0.40
2023-01-13T23:36:02.724Z,0.30
2023-01-13T23:38:29.588Z,0.20
2023-01-13T23:40:56.370Z,0.45
2023-01-13T23:43:23.142Z,0.65
2023-01-13T23:45:49.906Z,0.20
2023-01-13T23:48:16.763Z,0.40
2023-01-13T23:50:43.062Z,0.40
2023-01-13T23:53:09.378Z,0.28
2023-01-13T23:55:36.055Z,0.30
2023-01-13T23:58:02.348Z,0.20
